Time;durP1;ratioP1;P1;durP2;ratioP2;P2;SDS_P1;SDS_P2;PMS_P1;PMS_P2;Temp;Humidity;BMP_temperature;BMP_pressure;BME280_temperature;BME280_humidity;BME280_pressure;Samples;Min_cycle;Max_cycle;Signal;HPM_P1;HPM_P2
2023/05/21 00:02:23;;;;;;;20.60;18.80;;;;;;;13.94;100.00;99436.50;5070067;28;20259;-78
2023/05/21 00:04:50;;;;;;;18.90;17.10;;;;;;;13.88;100.00;99440.97;5064909;28;20198;-79
2023/05/21 00:07:17;;;;;;;18.13;16.37;;;;;;;13.86;100.00;99444.97;5065206;28;20189;-78
2023/05/21 00:09:44;;;;;;;17.83;16.23;;;;;;;13.82;100.00;99439.25;5069478;28;20213;-79
2023/05/21 00:12:10;;;;;;;19.27;17.50;;;;;;;13.82;100.00;99435.75;5073375;28;20290;-79
2023/05/21 00:14:37;;;;;;;19.17;17.47;;;;;;;13.75;100.00;99432.41;5074218;28;20209;-79
2023/05/21 00:17:04;;;;;;;19.77;17.97;;;;;;;13.78;100.00;99430.03;5070181;28;20193;-79
2023/05/21 00:19:32;;;;;;;20.53;18.73;;;;;;;13.63;100.00;99433.28;5070414;28;20197;-80
2023/05/21 00:22:02;;;;;;;21.07;19.13;;;;;;;13.59;100.00;99439.41;5068329;28;20231;-79
2023/05/21 00:24:29;;;;;;;21.10;19.30;;;;;;;13.58;100.00;99433.22;5068222;28;20217;-79
2023/05/21 00:26:55;;;;;;;21.40;19.50;;;;;;;13.54;100.00;99436.63;5057993;28;20224;-78
2023/05/21 00:29:22;;;;;;;20.73;18.80;;;;;;;13.50;100.00;99439.00;5057815;28;20220;-78
2023/05/21 00:31:50;;;;;;;18.70;17.03;;;;;;;13.47;100.00;99441.38;5062376;28;20204;-79
2023/05/21 00:34:17;;;;;;;18.87;17.17;;;;;;;13.43;100.00;99443.72;5061579;28;20267;-78
2023/05/21 00:36:45;;;;;;;19.83;17.93;;;;;;;13.41;100.00;99455.78;5061939;28;20202;-79
2023/05/21 00:39:12;;;;;;;19.20;17.43;;;;;;;13.38;100.00;99448.19;5061218;28;20197;-79
2023/05/21 00:41:39;;;;;;;20.43;18.53;;;;;;;13.33;100.00;99450.81;5073522;28;20227;-79
2023/05/21 00:44:06;;;;;;;20.20;18.30;;;;;;;13.30;100.00;99444.00;5069141;28;20679;-79
2023/05/21 00:46:33;;;;;;;19.27;17.50;;;;;;;13.31;100.00;99452.91;5054747;28;20195;-78
2023/05/21 00:49:00;;;;;;;19.93;18.13;;;;;;;13.26;100.00;99448.25;5059898;28;20195;-79
2023/05/21 00:51:29;;;;;;;20.97;18.97;;;;;;;13.23;100.00;99459.50;5061613;28;20194;-79
2023/05/21 00:53:56;;;;;;;21.50;19.47;;;;;;;13.14;100.00;99466.31;5054283;28;20205;-79
2023/05/21 00:56:25;;;;;;;20.30;18.43;;;;;;;13.13;100.00;99453.91;5040206;28;20610;-79
2023/05/21 00:58:53;;;;;;;21.50;19.37;;;;;;;13.09;100.00;99456.25;5062651;28;20185;-79
2023/05/21 01:01:20;;;;;;;20.00;18.10;;;;;;;13.07;100.00;99454.84;5070471;28;20275;-79
2023/05/21 01:03:47;;;;;;;20.03;18.13;;;;;;;13.09;100.00;99458.13;5057888;28;20276;-79
2023/05/21 01:06:14;;;;;;;20.70;18.70;;;;;;;13.06;100.00;99451.38;5069330;28;20669;-80
2023/05/21 01:08:41;;;;;;;19.73;17.93;;;;;;;13.05;100.00;99459.66;5070284;28;20193;-78
2023/05/21 01:11:08;;;;;;;19.63;17.83;;;;;;;13.01;100.00;99453.94;5062380;28;20219;-78
2023/05/21 01:13:38;;;;;;;20.40;18.50;;;;;;;12.99;100.00;99445.28;5070860;28;20246;-78
2023/05/21 01:16:07;;;;;;;21.13;19.03;;;;;;;13.29;100.00;99442.41;5065724;28;20194;-78
2023/05/21 01:18:36;;;;;;;20.73;18.83;;;;;;;13.33;100.00;99435.47;5065163;28;20298;-78
2023/05/21 01:21:04;;;;;;;21.13;19.03;;;;;;;13.07;100.00;99431.44;5065455;28;20567;-78
2023/05/21 01:23:30;;;;;;;19.60;17.77;;;;;;;12.88;100.00;99424.63;5065767;28;20193;-79
2023/05/21 01:25:57;;;;;;;19.97;18.03;;;;;;;12.78;100.00;99427.16;5059837;28;20212;-79
2023/05/21 01:28:24;;;;;;;21.57;19.67;;;;;;;12.69;100.00;99418.59;5058206;28;20738;-80
2023/05/21 01:30:51;;;;;;;22.03;20.03;;;;;;;12.68;100.00;99418.88;5056333;28;20675;-78
2023/05/21 01:33:25;;;;;;;20.53;18.63;;;;;;;12.60;100.00;99425.41;5065763;28;20216;-79
2023/05/21 01:36:03;;;;;;;20.00;18.10;;;;;;;12.60;100.00;99422.72;5059990;28;20202;-78
2023/05/21 01:38:38;;;;;;;19.93;17.93;;;;;;;12.60;100.00;99421.91;5049985;28;20188;-79
2023/05/21 01:41:12;;;;;;;19.90;18.10;;;;;;;12.52;100.00;99420.41;5055233;28;20201;-79
2023/05/21 01:43:41;;;;;;;18.87;16.97;;;;;;;12.52;100.00;99415.03;5069269;28;20243;-79
2023/05/21 01:46:10;;;;;;;19.87;18.07;;;;;;;12.51;100.00;99413.41;5055432;28;20195;-79
2023/05/21 01:48:37;;;;;;;20.07;18.20;;;;;;;12.48;100.00;99416.56;5068891;28;20200;-79
2023/05/21 01:51:04;;;;;;;20.17;18.27;;;;;;;12.51;100.00;99413.41;5048442;28;20656;-78
2023/05/21 01:53:31;;;;;;;21.37;19.23;;;;;;;12.50;100.00;99417.16;5071761;28;20557;-79
2023/05/21 01:55:58;;;;;;;22.00;19.87;;;;;;;12.42;100.00;99416.69;5060126;28;20247;-79
2023/05/21 01:58:25;;;;;;;23.27;20.77;;;;;;;12.39;100.00;99412.63;5058945;28;20199;-79
2023/05/21 02:00:51;;;;;;;24.50;22.10;;;;;;;12.35;100.00;99411.47;5059347;28;20285;-78
2023/05/21 02:03:19;;;;;;;23.60;21.37;;;;;;;12.34;100.00;99413.31;5064380;28;20673;-78
2023/05/21 02:05:46;;;;;;;20.70;18.60;;;;;;;12.36;100.00;99418.47;5063401;28;20220;-79
2023/05/21 02:08:14;;;;;;;22.23;19.90;;;;;;;12.29;100.00;99412.41;5063503;28;20200;-78
2023/05/21 02:10:40;;;;;;;19.60;17.80;;;;;;;12.30;100.00;99416.72;5059598;28;20219;-79
2023/05/21 02:13:07;;;;;;;20.63;18.63;;;;;;;12.32;100.00;99417.28;5060131;28;20194;-79
2023/05/21 02:15:34;;;;;;;20.07;18.07;;;;;;;12.38;100.00;99416.34;5051540;28;20263;-81
2023/05/21 02:18:02;;;;;;;20.13;18.23;;;;;;;12.29;100.00;99407.84;5064397;28;20199;-79
2023/05/21 02:20:29;;;;;;;21.33;19.33;;;;;;;12.22;100.00;99414.41;5041572;28;20224;-79
2023/05/21 02:22:56;;;;;;;20.73;18.80;;;;;;;12.16;100.00;99412.66;5072834;28;20260;-77
2023/05/21 02:25:23;;;;;;;19.87;18.00;;;;;;;12.08;100.00;99410.31;5062823;28;20276;-79
2023/05/21 02:27:52;;;;;;;21.07;19.00;;;;;;;12.05;100.00;99408.91;5050014;28;20204;-78
2023/05/21 02:30:19;;;;;;;21.13;18.97;;;;;;;12.02;100.00;99400.50;5063871;28;20197;-78
2023/05/21 02:32:47;;;;;;;19.77;17.87;;;;;;;11.99;100.00;99417.91;5065022;28;20201;-79
2023/05/21 02:35:15;;;;;;;20.47;18.57;;;;;;;12.00;100.00;99418.72;5060533;28;20206;-79
2023/05/21 02:37:44;;;;;;;19.27;17.37;;;;;;;11.91;100.00;99416.38;5058106;28;20230;-79
2023/05/21 02:40:11;;;;;;;19.57;17.67;;;;;;;11.89;100.00;99409.63;5058628;28;20232;-79
2023/05/21 02:42:39;;;;;;;19.23;17.30;;;;;;;11.85;100.00;99405.78;5066909;28;20206;-78
2023/05/21 02:45:10;;;;;;;19.37;17.57;;;;;;;11.82;100.00;99407.06;5056724;28;20626;-79
2023/05/21 02:47:38;;;;;;;19.47;17.47;;;;;;;11.79;100.00;99402.16;5048964;28;20207;-79
2023/05/21 02:50:07;;;;;;;18.40;16.70;;;;;;;11.76;100.00;99397.22;5049719;28;20237;-79
2023/05/21 02:52:38;;;;;;;19.50;17.70;;;;;;;11.72;100.00;99398.75;5049084;28;20211;-78
2023/05/21 02:55:05;;;;;;;18.60;16.90;;;;;;;11.76;100.00;99404.47;5071058;28;20215;-79
2023/05/21 02:57:32;;;;;;;18.93;17.17;;;;;;;11.71;100.00;99397.06;5076460;28;20186;-79
2023/05/21 02:59:59;;;;;;;17.57;15.87;;;;;;;11.69;100.00;99395.69;5074705;28;20816;-78
2023/05/21 03:02:25;;;;;;;17.83;16.13;;;;;;;11.70;100.00;99394.66;5066929;28;20233;-78
2023/05/21 03:04:53;;;;;;;18.63;16.90;;;;;;;11.67;100.00;99395.09;5073505;28;20553;-79
2023/05/21 03:07:20;;;;;;;17.93;16.23;;;;;;;11.64;100.00;99396.38;5056814;28;20192;-79
2023/05/21 03:09:47;;;;;;;18.17;16.57;;;;;;;11.64;100.00;99390.19;5061890;28;20231;-79
2023/05/21 03:12:13;;;;;;;17.47;15.87;;;;;;;11.62;100.00;99390.41;5054964;28;20252;-78
2023/05/21 03:14:45;;;;;;;17.97;16.37;;;;;;;11.68;100.00;99386.00;5064230;28;20241;-78
2023/05/21 03:17:15;;;;;;;17.80;16.17;;;;;;;11.64;100.00;99382.16;5066544;28;20183;-78
2023/05/21 03:19:43;;;;;;;18.10;16.43;;;;;;;11.70;100.00;99389.28;5060780;28;20183;-79
2023/05/21 03:22:10;;;;;;;18.13;16.53;;;;;;;11.69;100.00;99390.31;5069511;28;20193;-78
2023/05/21 03:24:37;;;;;;;17.77;16.17;;;;;;;11.71;100.00;99397.06;5060862;28;20192;-79
2023/05/21 03:27:05;;;;;;;17.27;15.67;;;;;;;11.76;100.00;99391.88;5046517;28;20282;-79
2023/05/21 03:29:33;;;;;;;17.03;15.40;;;;;;;11.73;100.00;99386.97;5064534;28;20195;-78
2023/05/21 03:32:01;;;;;;;16.40;14.90;;;;;;;11.76;100.00;99391.03;5071523;28;20212;-79
2023/05/21 03:34:29;;;;;;;16.80;15.20;;;;;;;11.80;100.00;99400.28;5056970;28;20631;-79
2023/05/21 03:36:57;;;;;;;16.23;14.70;;;;;;;11.84;100.00;99407.66;5064068;28;20194;-78
2023/05/21 03:39:25;;;;;;;16.87;15.27;;;;;;;11.91;100.00;99402.97;5066222;28;20647;-78
2023/05/21 03:41:53;;;;;;;16.07;14.63;;;;;;;12.02;100.00;99395.16;5066274;28;20206;-79
2023/05/21 03:44:37;;;;;;;16.30;14.87;;;;;;;12.05;100.00;99400.84;5060826;28;20205;-78
2023/05/21 03:47:41;;;;;;;16.13;14.53;;;;;;;12.10;100.00;99398.28;5054792;28;20202;-78
2023/05/21 03:50:10;;;;;;;15.20;13.80;;;;;;;12.15;100.00;99394.91;5070670;28;20645;-78
2023/05/21 03:52:37;;;;;;;16.33;14.90;;;;;;;12.22;100.00;99400.97;5053311;28;20202;-77
2023/05/21 03:55:04;;;;;;;16.87;15.37;;;;;;;12.32;100.00;99407.34;5057752;28;20219;-79
2023/05/21 03:57:31;;;;;;;17.37;15.73;;;;;;;12.65;100.00;99409.38;5058900;28;20217;-78
2023/05/21 03:59:58;;;;;;;17.97;16.10;;;;;;;13.40;100.00;99403.00;5047301;28;20239;-78
2023/05/21 04:02:26;;;;;;;17.17;15.47;;;;;;;14.08;100.00;99400.06;5064116;28;20592;-80
2023/05/21 04:04:54;;;;;;;16.03;14.53;;;;;;;15.00;100.00;99402.88;5060801;28;20205;-80
2023/05/21 04:07:21;;;;;;;16.53;14.83;;;;;;;15.80;100.00;99402.81;5061840;28;20200;-78
2023/05/21 04:09:48;;;;;;;14.70;13.33;;;;;;;16.58;100.00;99411.97;5061968;28;20203;-78
2023/05/21 04:12:16;;;;;;;14.77;13.37;;;;;;;17.35;100.00;99410.31;5070643;28;20208;-79
2023/05/21 04:14:43;;;;;;;13.97;12.57;;;;;;;17.87;100.00;99407.38;5061174;28;20300;-78
2023/05/21 04:17:11;;;;;;;14.20;12.90;;;;;;;18.39;100.00;99417.81;5064182;28;20219;-78
2023/05/21 04:19:38;;;;;;;18.87;16.90;;;;;;;18.63;100.00;99412.63;5045745;28;20201;-79
2023/05/21 04:22:05;;;;;;;15.93;14.53;;;;;;;18.41;100.00;99419.19;5057874;28;20569;-78
2023/05/21 04:24:32;;;;;;;14.67;13.33;;;;;;;17.88;100.00;99412.50;5045328;28;20198;-77
2023/05/21 04:27:24;;;;;;;14.30;13.10;;;;;;;17.20;100.00;99418.38;5072816;28;20201;-78
2023/05/21 04:29:53;;;;;;;14.97;13.57;;;;;;;16.65;100.00;99415.25;5064330;28;20197;-79
2023/05/21 04:32:22;;;;;;;15.50;14.00;;;;;;;16.33;100.00;99413.72;5057003;28;20235;-79
2023/05/21 04:34:49;;;;;;;16.03;14.53;;;;;;;16.13;100.00;99414.41;5061422;28;20308;-79
2023/05/21 04:37:18;;;;;;;15.60;14.03;;;;;;;16.01;100.00;99416.47;5065686;28;20224;-78
2023/05/21 04:39:45;;;;;;;15.60;14.23;;;;;;;16.01;100.00;99419.16;5063520;28;20200;-79
2023/05/21 04:42:12;;;;;;;15.33;13.93;;;;;;;16.01;100.00;99419.16;5067815;28;20628;-78
2023/05/21 04:44:43;;;;;;;15.20;13.70;;;;;;;16.04;100.00;99418.66;5062868;28;20190;-78
2023/05/21 04:47:13;;;;;;;15.47;14.07;;;;;;;16.10;100.00;99423.81;5054125;28;20193;-78
2023/05/21 04:49:40;;;;;;;15.70;14.40;;;;;;;16.15;100.00;99418.44;5061884;28;20197;-78
2023/05/21 04:52:07;;;;;;;14.37;13.17;;;;;;;16.15;100.00;99417.63;5061857;28;20205;-79
2023/05/21 04:54:35;;;;;;;15.27;13.93;;;;;;;16.22;100.00;99415.53;5060486;28;20243;-78
2023/05/21 04:57:02;;;;;;;16.17;14.77;;;;;;;16.36;100.00;99416.69;5052694;28;20189;-79
2023/05/21 04:59:28;;;;;;;15.13;13.73;;;;;;;16.53;100.00;99411.91;5053889;28;20626;-78
2023/05/21 05:01:55;;;;;;;15.17;13.87;;;;;;;16.67;100.00;99414.97;5063377;28;20261;-80
2023/05/21 05:04:22;;;;;;;14.83;13.43;;;;;;;16.79;100.00;99425.59;5066552;28;20201;-78
2023/05/21 05:06:49;;;;;;;15.53;14.23;;;;;;;16.95;100.00;99427.25;5070247;28;20231;-78
2023/05/21 05:09:16;;;;;;;15.53;14.23;;;;;;;17.07;100.00;99425.13;5062448;28;20723;-78
2023/05/21 05:11:43;;;;;;;14.50;13.10;;;;;;;17.20;100.00;99416.50;5043495;28;20600;-79
2023/05/21 05:14:10;;;;;;;15.47;14.10;;;;;;;17.32;100.00;99418.94;5064412;28;20205;-78
2023/05/21 05:16:36;;;;;;;15.10;13.80;;;;;;;17.44;100.00;99417.63;5060966;28;20216;-79
2023/05/21 05:19:03;;;;;;;14.67;13.27;;;;;;;17.63;100.00;99417.13;5071233;28;20195;-79
2023/05/21 05:21:30;;;;;;;15.93;14.40;;;;;;;17.77;100.00;99415.50;5064287;28;20242;-78
2023/05/21 05:23:58;;;;;;;15.13;13.73;;;;;;;17.87;100.00;99415.50;5070947;28;20697;-79
2023/05/21 05:26:27;;;;;;;16.10;14.67;;;;;;;18.07;100.00;99410.03;5052433;28;20213;-78
2023/05/21 05:28:54;;;;;;;15.13;13.80;;;;;;;18.19;100.00;99410.56;5050019;28;20194;-78
2023/05/21 05:31:22;;;;;;;15.83;14.47;;;;;;;18.35;100.00;99420.28;5050317;28;20184;-78
2023/05/21 05:33:49;;;;;;;15.90;14.43;;;;;;;18.53;100.00;99416.19;5055125;28;20579;-78
2023/05/21 05:36:15;;;;;;;15.10;13.70;;;;;;;18.72;100.00;99419.91;5046464;28;20473;-78
2023/05/21 05:38:42;;;;;;;15.13;13.80;;;;;;;18.94;100.00;99418.75;5063645;28;20553;-78
2023/05/21 05:41:09;;;;;;;15.40;14.00;;;;;;;19.10;100.00;99409.41;5070652;28;20605;-79
2023/05/21 05:43:36;;;;;;;15.60;14.30;;;;;;;19.15;100.00;99417.53;5066303;28;20557;-80
2023/05/21 05:46:03;;;;;;;15.20;13.97;;;;;;;19.10;100.00;99415.66;5049881;28;20209;-78
2023/05/21 05:48:30;;;;;;;14.60;13.23;;;;;;;19.17;100.00;99418.91;5054160;28;20292;-78
2023/05/21 05:50:57;;;;;;;15.37;13.97;;;;;;;19.21;100.00;99427.28;5052168;28;20238;-79
2023/05/21 05:53:25;;;;;;;15.37;14.17;;;;;;;19.35;100.00;99425.56;5047450;28;20326;-78
2023/05/21 05:55:52;;;;;;;15.10;13.80;;;;;;;19.47;100.00;99422.53;5055741;28;20743;-78
2023/05/21 05:58:19;;;;;;;15.33;13.73;;;;;;;19.56;100.00;99420.81;5070640;28;20226;-78
2023/05/21 06:00:53;;;;;;;15.10;13.70;;;;;;;19.48;100.00;99416.00;5054655;28;20700;-78
2023/05/21 06:03:20;;;;;;;14.90;13.50;;;;;;;19.43;100.00;99416.00;5070424;28;20221;-78
2023/05/21 06:05:51;;;;;;;14.47;13.10;;;;;;;19.69;100.00;99426.41;5069787;28;20204;-79
2023/05/21 06:08:18;;;;;;;15.10;13.67;;;;;;;19.88;100.00;99421.09;5070321;28;20200;-78
2023/05/21 06:10:44;;;;;;;13.97;12.70;;;;;;;20.00;100.00;99418.00;5063119;28;20223;-79
2023/05/21 06:13:11;;;;;;;13.70;12.53;;;;;;;20.13;100.00;99414.63;5064751;28;20218;-79
2023/05/21 06:15:41;;;;;;;14.67;13.37;;;;;;;20.17;100.00;99410.22;5060685;28;20205;-78
2023/05/21 06:18:08;;;;;;;13.80;12.60;;;;;;;20.30;100.00;99412.28;5056016;28;20230;-79
2023/05/21 06:20:35;;;;;;;14.17;12.87;;;;;;;20.42;100.00;99412.72;5059610;28;20195;-78
2023/05/21 06:23:03;;;;;;;13.97;12.67;;;;;;;20.48;100.00;99418.91;5063815;28;20200;-78
2023/05/21 06:25:30;;;;;;;13.90;12.70;;;;;;;20.51;100.00;99412.88;5070199;28;20229;-78
2023/05/21 06:27:57;;;;;;;13.27;12.13;;;;;;;20.71;100.00;99417.28;5061744;28;20626;-78
2023/05/21 06:30:26;;;;;;;13.53;12.27;;;;;;;20.81;100.00;99412.50;5069207;28;20678;-78
2023/05/21 06:32:53;;;;;;;14.00;12.70;;;;;;;20.84;100.00;99409.22;5067932;28;20229;-78
2023/05/21 06:35:20;;;;;;;13.33;12.13;;;;;;;20.63;100.00;99405.94;5066044;28;20209;-79
2023/05/21 06:37:47;;;;;;;13.77;12.47;;;;;;;20.85;100.00;99401.88;5067427;28;20612;-78
2023/05/21 06:40:15;;;;;;;12.77;11.57;;;;;;;21.00;100.00;99404.38;5065581;28;20611;-78
2023/05/21 06:42:41;;;;;;;12.97;11.77;;;;;;;21.01;100.00;99404.06;5062974;28;20206;-78
2023/05/21 06:45:31;;;;;;;12.90;11.77;;;;;;;21.23;100.00;99405.47;5059133;28;20205;-78
2023/05/21 06:48:03;;;;;;;13.57;12.27;;;;;;;20.50;100.00;99403.09;5062464;28;20295;-78
2023/05/21 06:50:30;;;;;;;13.13;11.87;;;;;;;20.98;100.00;99410.13;5063306;28;20191;-79
2023/05/21 06:52:57;;;;;;;13.30;12.00;;;;;;;21.22;100.00;99412.00;5060171;28;20189;-78
2023/05/21 06:55:24;;;;;;;13.90;12.70;;;;;;;21.22;100.00;99420.19;5058966;28;20225;-78
2023/05/21 06:58:10;;;;;;;13.80;12.50;;;;;;;20.88;100.00;99409.44;5060454;28;20317;-78
2023/05/21 07:00:36;;;;;;;13.07;11.87;;;;;;;21.30;100.00;99412.16;5046134;28;20244;-78
2023/05/21 07:03:03;;;;;;;12.80;11.70;;;;;;;21.10;100.00;99413.22;5059594;28;20207;-78
2023/05/21 07:05:30;;;;;;;12.67;11.57;;;;;;;21.15;100.00;99409.63;5066287;28;20229;-79
2023/05/21 07:07:56;;;;;;;13.23;11.67;;;;;;;21.18;100.00;99408.25;5069292;28;20554;-80
2023/05/21 07:10:23;;;;;;;13.30;11.97;;;;;;;21.27;100.00;99401.03;5067814;28;20722;-80
2023/05/21 07:12:50;;;;;;;12.93;11.73;;;;;;;21.33;100.00;99402.56;5065806;28;20190;-79
2023/05/21 07:15:17;;;;;;;12.43;11.23;;;;;;;21.49;100.00;99401.25;5069659;28;20208;-79
2023/05/21 07:17:44;;;;;;;12.10;11.10;;;;;;;21.64;100.00;99397.47;5061286;28;20225;-79
2023/05/21 07:20:12;;;;;;;11.50;10.50;;;;;;;21.75;100.00;99401.63;5060062;28;20607;-78
2023/05/21 07:22:41;;;;;;;12.67;11.47;;;;;;;21.69;100.00;99395.47;5055292;28;20195;-79
2023/05/21 07:25:10;;;;;;;12.30;11.10;;;;;;;21.78;100.00;99395.59;5065351;28;20291;-79
2023/05/21 07:27:37;;;;;;;11.57;10.40;;;;;;;22.02;100.00;99401.75;5068443;28;20190;-79
2023/05/21 07:30:04;;;;;;;11.63;10.60;;;;;;;22.29;100.00;99399.06;5063675;28;20818;-79
2023/05/21 07:32:31;;;;;;;12.13;10.93;;;;;;;22.46;100.00;99398.44;5053430;28;20254;-79
2023/05/21 07:35:00;;;;;;;11.15;10.15;;;;;;;22.54;100.00;99391.47;5069290;28;20229;-79
2023/05/21 07:37:29;;;;;;;12.05;10.95;;;;;;;22.67;100.00;99393.41;5048110;28;20240;-79
2023/05/21 07:39:59;;;;;;;12.57;11.25;;;;;;;21.95;100.00;99396.66;5070210;28;20732;-80
2023/05/21 07:42:26;;;;;;;12.75;11.48;;;;;;;22.05;100.00;99400.31;5046902;28;20676;-81
2023/05/21 07:44:55;;;;;;;12.70;11.48;;;;;;;22.00;100.00;99403.97;5066464;28;20201;-81
2023/05/21 07:47:23;;;;;;;11.50;10.50;;;;;;;22.31;100.00;99406.94;5062180;28;20197;-80
2023/05/21 07:49:50;;;;;;;12.50;11.10;;;;;;;22.68;100.00;99403.19;5065714;28;20263;-81
2023/05/21 07:52:16;;;;;;;11.95;10.70;;;;;;;22.73;100.00;99387.53;5064035;28;20736;-80
2023/05/21 07:54:43;;;;;;;12.10;11.10;;;;;;;22.16;100.00;99394.38;5064963;28;20194;-79
2023/05/21 07:57:10;;;;;;;11.77;10.88;;;;;;;22.61;100.00;99397.34;5051335;28;20216;-80
2023/05/21 07:59:46;;;;;;;11.73;10.73;;;;;;;22.93;100.00;99391.78;5053418;28;20197;-80
2023/05/21 08:02:12;;;;;;;11.20;10.20;;;;;;;23.20;100.00;99396.34;5054702;28;20320;-80
2023/05/21 08:04:39;;;;;;;11.98;10.98;;;;;;;23.33;100.00;99400.19;5055330;28;20190;-80
2023/05/21 08:07:09;;;;;;;11.80;10.70;;;;;;;23.45;100.00;99401.28;5049581;28;20209;-80
2023/05/21 08:09:36;;;;;;;12.43;11.35;;;;;;;23.45;100.00;99404.00;5038449;28;20585;-81
2023/05/21 08:12:03;;;;;;;11.55;10.55;;;;;;;23.54;100.00;99412.28;5053651;28;20224;-80
2023/05/21 08:14:30;;;;;;;11.82;10.73;;;;;;;23.70;100.00;99405.34;5035754;28;20219;-80
2023/05/21 08:16:57;;;;;;;11.57;10.38;;;;;;;23.86;100.00;99403.81;5054972;28;20703;-79
2023/05/21 08:19:24;;;;;;;11.80;10.80;;;;;;;24.04;100.00;99413.75;5056922;28;20725;-80
2023/05/21 08:21:50;;;;;;;12.32;11.25;;;;;;;24.12;100.00;99414.94;5058211;28;20186;-80
2023/05/21 08:24:20;;;;;;;11.63;10.63;;;;;;;24.13;100.00;99408.31;5057290;28;20193;-80
2023/05/21 08:26:49;;;;;;;11.38;10.35;;;;;;;24.18;100.00;99413.69;5059144;28;20254;-80
2023/05/21 08:29:16;;;;;;;11.77;10.70;;;;;;;24.19;100.00;99418.03;5053636;28;20675;-81
2023/05/21 08:31:43;;;;;;;11.57;10.40;;;;;;;24.20;100.00;99410.66;5044517;28;20211;-80
2023/05/21 08:34:10;;;;;;;10.73;9.77;;;;;;;24.31;100.00;99398.31;5057137;28;20746;-80
2023/05/21 08:36:59;;;;;;;11.20;10.10;;;;;;;24.37;100.00;99400.56;5058352;28;20217;-80
2023/05/21 08:39:44;;;;;;;11.32;10.27;;;;;;;24.37;100.00;99403.31;5068594;28;20597;-79
2023/05/21 08:42:19;;;;;;;11.52;10.30;;;;;;;24.45;100.00;99393.53;5068818;28;20207;-80
2023/05/21 08:45:04;;;;;;;10.98;9.98;;;;;;;24.10;100.00;99398.00;5057132;28;20200;-79
2023/05/21 08:47:33;;;;;;;10.85;9.85;;;;;;;23.90;100.00;99401.25;5071386;28;20204;-80
2023/05/21 08:50:03;;;;;;;10.88;10.00;;;;;;;24.09;100.00;99396.38;5055105;28;20246;-79
2023/05/21 08:52:31;;;;;;;10.85;9.85;;;;;;;24.38;100.00;99380.28;5065402;28;20193;-79
2023/05/21 08:54:58;;;;;;;10.38;9.48;;;;;;;24.46;100.00;99384.97;5057963;28;20560;-79
2023/05/21 08:57:26;;;;;;;10.27;9.45;;;;;;;24.56;100.00;99378.41;5054083;28;20705;-79
2023/05/21 08:59:54;;;;;;;10.68;9.70;;;;;;;24.53;100.00;99381.81;5057286;28;20217;-79
2023/05/21 09:02:25;;;;;;;11.05;10.13;;;;;;;24.75;100.00;99378.94;5058640;28;20239;-80
2023/05/21 09:04:56;;;;;;;11.13;10.15;;;;;;;24.63;100.00;99380.69;5056505;28;20723;-79
2023/05/21 09:07:24;;;;;;;10.63;9.73;;;;;;;24.44;100.00;99378.22;5059312;28;20198;-80
2023/05/21 09:10:12;;;;;;;10.00;9.10;;;;;;;24.77;100.00;99378.66;5052080;28;20196;-80
2023/05/21 09:12:40;;;;;;;10.27;9.27;;;;;;;24.79;100.00;99384.59;5042825;28;20619;-79
2023/05/21 09:15:07;;;;;;;10.40;8.30;;;;;;;24.80;100.00;99373.31;5034830;28;20196;-79
2023/05/21 09:17:36;;;;;;;9.32;8.45;;;;;;;24.35;100.00;99380.13;5038141;28;20233;-79
2023/05/21 09:20:23;;;;;;;9.02;8.02;;;;;;;24.61;100.00;99381.00;5049936;28;20313;-79
2023/05/21 09:22:54;;;;;;;9.32;8.50;;;;;;;24.92;99.73;99389.16;5048891;28;20197;-79
2023/05/21 09:25:28;;;;;;;9.10;8.30;;;;;;;25.12;96.33;99380.34;5054450;28;20314;-79
2023/05/21 09:27:59;;;;;;;8.43;7.60;;;;;;;25.27;96.29;99385.34;5042546;28;20211;-79
2023/05/21 09:30:26;;;;;;;8.80;8.00;;;;;;;25.33;93.50;99381.31;5041213;28;20554;-79
2023/05/21 09:32:58;;;;;;;8.75;7.93;;;;;;;25.54;94.06;99384.22;5037030;28;20268;-78
2023/05/21 09:35:25;;;;;;;8.88;7.68;;;;;;;25.71;95.17;99386.16;5049059;28;20223;-78
2023/05/21 09:37:52;;;;;;;8.45;7.65;;;;;;;25.86;91.83;99382.88;5049839;28;20231;-81
2023/05/21 09:40:21;;;;;;;10.07;7.97;;;;;;;25.94;90.42;99381.28;5027160;28;20201;-81
2023/05/21 09:42:51;;;;;;;8.63;7.82;;;;;;;25.74;89.28;99375.34;5050302;28;20666;-79
2023/05/21 09:45:19;;;;;;;8.52;7.50;;;;;;;25.91;89.53;99373.69;5039718;28;20201;-80
2023/05/21 09:47:48;;;;;;;8.40;7.70;;;;;;;26.12;89.46;99375.41;5051017;28;20198;-79
2023/05/21 09:50:22;;;;;;;8.32;7.60;;;;;;;26.02;85.62;99363.97;5066590;28;20196;-78
2023/05/21 09:52:51;;;;;;;8.30;7.60;;;;;;;26.21;87.20;99370.72;5071465;28;20191;-78
2023/05/21 09:55:21;;;;;;;8.43;7.40;;;;;;;26.31;87.20;99376.97;5070325;28;20273;-78
2023/05/21 09:57:48;;;;;;;8.13;7.53;;;;;;;26.42;85.56;99376.28;5068315;28;20258;-78
2023/05/21 10:00:21;;;;;;;8.25;7.55;;;;;;;26.36;86.41;99369.38;5065982;28;20196;-78
2023/05/21 10:03:01;;;;;;;10.55;7.65;;;;;;;26.37;85.19;99364.66;5057497;28;20200;-79
2023/05/21 10:05:29;;;;;;;9.20;7.78;;;;;;;26.49;85.21;99368.34;5050389;28;20271;-79
2023/05/21 10:08:03;;;;;;;8.27;7.57;;;;;;;26.58;83.52;99365.53;5055612;28;20279;-80
2023/05/21 10:10:30;;;;;;;8.48;7.57;;;;;;;26.57;84.59;99359.22;5048639;28;20208;-78
2023/05/21 10:13:07;;;;;;;8.18;7.47;;;;;;;26.71;83.08;99362.56;5058560;28;20207;-79
2023/05/21 10:15:38;;;;;;;8.57;7.70;;;;;;;26.91;84.40;99368.44;5050443;28;20190;-78
2023/05/21 10:18:05;;;;;;;8.73;7.88;;;;;;;26.80;80.82;99361.69;5049098;28;20603;-78
2023/05/21 10:20:33;;;;;;;7.90;7.30;;;;;;;26.97;81.66;99359.66;5047151;28;20217;-78
2023/05/21 10:23:01;;;;;;;7.70;7.00;;;;;;;27.19;80.85;99352.22;5053302;28;20200;-79
2023/05/21 10:25:27;;;;;;;8.15;7.30;;;;;;;27.27;81.21;99351.34;5044512;28;20645;-78
2023/05/21 10:27:54;;;;;;;8.20;7.40;;;;;;;27.39;80.00;99346.69;5052013;28;21473;-79
2023/05/21 10:30:22;;;;;;;7.90;7.20;;;;;;;27.40;77.77;99347.50;5049477;28;20656;-78
2023/05/21 10:32:49;;;;;;;7.47;6.78;;;;;;;27.41;77.86;99344.41;5052939;28;20194;-78
2023/05/21 10:35:17;;;;;;;8.05;7.35;;;;;;;27.25;76.35;99342.63;5046977;28;20296;-80
2023/05/21 10:37:44;;;;;;;7.97;7.38;;;;;;;27.26;76.89;99344.22;5052185;28;20486;-78
2023/05/21 10:40:11;;;;;;;8.23;7.53;;;;;;;26.89;78.57;99337.72;5054470;28;20664;-78
2023/05/21 10:42:47;;;;;;;6.90;6.40;;;;;;;27.25;80.06;99337.91;5049391;28;20277;-78
2023/05/21 10:45:31;;;;;;;8.20;7.40;;;;;;;27.47;78.28;99339.53;5046862;28;20239;-78
2023/05/21 10:48:22;;;;;;;9.13;7.40;;;;;;;27.61;77.26;99328.25;5053563;28;20243;-77
2023/05/21 10:51:25;;;;;;;7.97;7.30;;;;;;;27.90;75.83;99333.59;5054413;28;20218;-77
2023/05/21 10:53:58;;;;;;;7.57;6.97;;;;;;;27.98;75.87;99325.25;5049330;28;20190;-79
2023/05/21 10:56:31;;;;;;;8.00;7.20;;;;;;;27.94;76.75;99329.03;5049578;28;20237;-79
2023/05/21 10:58:58;;;;;;;7.78;7.18;;;;;;;27.96;74.75;99324.75;5043634;28;20195;-78
2023/05/21 11:01:28;;;;;;;8.43;7.63;;;;;;;28.12;75.13;99333.22;5045358;28;20268;-78
2023/05/21 11:03:56;;;;;;;8.23;7.43;;;;;;;28.25;77.18;99326.56;5051684;28;20194;-80
2023/05/21 11:06:25;;;;;;;7.57;6.65;;;;;;;28.13;74.86;99332.06;5046849;28;20193;-78
2023/05/21 11:08:52;;;;;;;7.45;6.85;;;;;;;28.27;74.14;99321.50;5052558;28;20243;-79
2023/05/21 11:11:41;;;;;;;7.22;6.53;;;;;;;28.14;74.89;99319.88;5045108;28;20197;-80
2023/05/21 11:14:26;;;;;;;7.93;7.20;;;;;;;28.09;73.47;99316.53;5067736;28;20201;-77
2023/05/21 11:16:53;;;;;;;8.35;7.55;;;;;;;28.08;71.34;99329.50;5074611;28;20201;-77
2023/05/21 11:19:20;;;;;;;7.68;6.90;;;;;;;28.15;70.96;99323.44;5074562;28;20275;-80
2023/05/21 11:21:50;;;;;;;7.40;6.80;;;;;;;28.25;72.71;99323.00;5053683;28;20194;-80
2023/05/21 11:24:18;;;;;;;7.72;6.93;;;;;;;28.38;71.26;99324.59;5047098;28;20242;-80